sensor_id;sensor_type;location;lat;lon;timestamp;P1;durP1;ratioP1;P2;durP2;ratioP2
3767;SDS011;1899;49.966;7.106;2023-03-23T05:00:52;2.87;;;2.60;;
3767;SDS011;1899;49.966;7.106;2023-03-23T05:03:17;2.20;;;1.83;;
3767;SDS011;1899;49.966;7.106;2023-03-23T05:05:43;3.10;;;1.70;;
3767;SDS011;1899;49.966;7.106;2023-03-23T05:08:11;2.10;;;1.53;;
3767;SDS011;1899;49.966;7.106;2023-03-23T05:10:37;1.83;;;1.73;;
3767;SDS011;1899;49.966;7.106;2023-03-23T05:13:02;3.50;;;1.80;;
3767;SDS011;1899;49.966;7.106;2023-03-23T05:15:27;2.57;;;1.43;;
3767;SDS011;1899;49.966;7.106;2023-03-23T05:17:53;3.60;;;1.90;;
3767;SDS011;1899;49.966;7.106;2023-03-23T05:20:18;2.70;;;2.10;;
3767;SDS011;1899;49.966;7.106;2023-03-23T05:22:45;3.83;;;1.97;;
3767;SDS011;1899;49.966;7.106;2023-03-23T05:25:12;2.27;;;1.90;;
3767;SDS011;1899;49.966;7.106;2023-03-23T05:27:38;2.43;;;1.73;;
3767;SDS011;1899;49.966;7.106;2023-03-23T05:30:04;1.83;;;1.50;;
3767;SDS011;1899;49.966;7.106;2023-03-23T05:32:29;5.17;;;1.67;;
3767;SDS011;1899;49.966;7.106;2023-03-23T05:34:56;2.33;;;2.07;;
3767;SDS011;1899;49.966;7.106;2023-03-23T05:37:21;4.13;;;1.90;;
3767;SDS011;1899;49.966;7.106;2023-03-23T05:39:48;4.00;;;1.80;;
3767;SDS011;1899;49.966;7.106;2023-03-23T05:42:13;2.53;;;1.43;;
3767;SDS011;1899;49.966;7.106;2023-03-23T05:44:38;4.00;;;1.70;;
3767;SDS011;1899;49.966;7.106;2023-03-23T05:47:03;2.57;;;1.43;;
3767;SDS011;1899;49.966;7.106;2023-03-23T05:49:29;5.30;;;1.73;;
3767;SDS011;1899;49.966;7.106;2023-03-23T05:51:54;5.20;;;1.90;;
3767;SDS011;1899;49.966;7.106;2023-03-23T05:54:19;2.07;;;1.40;;
3767;SDS011;1899;49.966;7.106;2023-03-23T05:56:45;3.57;;;1.50;;
3767;SDS011;1899;49.966;7.106;2023-03-23T05:59:10;4.03;;;1.50;;
3767;SDS011;1899;49.966;7.106;2023-03-23T06:01:36;2.17;;;1.50;;
3767;SDS011;1899;49.966;7.106;2023-03-23T06:04:02;2.10;;;1.30;;
3767;SDS011;1899;49.966;7.106;2023-03-23T06:06:27;2.40;;;1.70;;
3767;SDS011;1899;49.966;7.106;2023-03-23T06:08:54;1.70;;;1.60;;
3767;SDS011;1899;49.966;7.106;2023-03-23T06:11:20;2.67;;;1.30;;
3767;SDS011;1899;49.966;7.106;2023-03-23T06:13:45;2.37;;;1.57;;
3767;SDS011;1899;49.966;7.106;2023-03-23T06:16:10;1.63;;;1.43;;
3767;SDS011;1899;49.966;7.106;2023-03-23T06:18:36;4.33;;;1.70;;
3767;SDS011;1899;49.966;7.106;2023-03-23T06:21:05;1.70;;;1.40;;
3767;SDS011;1899;49.966;7.106;2023-03-23T06:23:31;1.67;;;1.23;;
3767;SDS011;1899;49.966;7.106;2023-03-23T06:25:57;3.97;;;1.43;;
3767;SDS011;1899;49.966;7.106;2023-03-23T06:28:24;2.80;;;1.60;;
3767;SDS011;1899;49.966;7.106;2023-03-23T06:30:49;2.00;;;1.73;;
3767;SDS011;1899;49.966;7.106;2023-03-23T06:33:14;1.70;;;1.47;;
3767;SDS011;1899;49.966;7.106;2023-03-23T06:35:40;2.07;;;1.40;;
3767;SDS011;1899;49.966;7.106;2023-03-23T06:38:05;1.67;;;1.57;;
3767;SDS011;1899;49.966;7.106;2023-03-23T06:40:31;2.20;;;1.57;;
3767;SDS011;1899;49.966;7.106;2023-03-23T06:42:56;1.60;;;1.50;;
3767;SDS011;1899;49.966;7.106;2023-03-23T06:45:23;2.93;;;1.60;;
3767;SDS011;1899;49.966;7.106;2023-03-23T06:47:49;2.13;;;1.93;;
3767;SDS011;1899;49.966;7.106;2023-03-23T06:50:15;3.67;;;1.63;;
3767;SDS011;1899;49.966;7.106;2023-03-23T06:52:44;1.97;;;1.83;;
3767;SDS011;1899;49.966;7.106;2023-03-23T06:55:10;2.53;;;2.00;;
3767;SDS011;1899;49.966;7.106;2023-03-23T06:57:36;2.20;;;2.00;;
3767;SDS011;1899;49.966;7.106;2023-03-23T07:00:01;2.27;;;1.40;;
3767;SDS011;1899;49.966;7.106;2023-03-23T07:02:38;2.37;;;2.17;;
3767;SDS011;1899;49.966;7.106;2023-03-23T07:05:04;2.37;;;2.17;;
3767;SDS011;1899;49.966;7.106;2023-03-23T07:07:29;2.20;;;1.50;;
3767;SDS011;1899;49.966;7.106;2023-03-23T07:09:55;2.03;;;1.77;;
3767;SDS011;1899;49.966;7.106;2023-03-23T07:12:20;1.47;;;1.37;;
3767;SDS011;1899;49.966;7.106;2023-03-23T07:14:46;2.30;;;1.53;;
3767;SDS011;1899;49.966;7.106;2023-03-23T07:17:11;2.00;;;1.30;;
3767;SDS011;1899;49.966;7.106;2023-03-23T07:19:37;1.60;;;1.50;;
3767;SDS011;1899;49.966;7.106;2023-03-23T07:22:06;3.57;;;2.10;;
3767;SDS011;1899;49.966;7.106;2023-03-23T07:24:32;2.00;;;1.60;;
3767;SDS011;1899;49.966;7.106;2023-03-23T07:26:57;2.70;;;1.83;;
3767;SDS011;1899;49.966;7.106;2023-03-23T07:29:23;5.80;;;3.60;;
3767;SDS011;1899;49.966;7.106;2023-03-23T07:31:48;1.30;;;1.20;;
3767;SDS011;1899;49.966;7.106;2023-03-23T07:34:13;3.90;;;1.87;;
3767;SDS011;1899;49.966;7.106;2023-03-23T07:36:39;2.37;;;1.63;;
3767;SDS011;1899;49.966;7.106;2023-03-23T07:39:05;1.70;;;1.60;;
3767;SDS011;1899;49.966;7.106;2023-03-23T07:41:33;2.47;;;1.80;;
3767;SDS011;1899;49.966;7.106;2023-03-23T07:43:58;2.50;;;1.73;;
3767;SDS011;1899;49.966;7.106;2023-03-23T07:46:23;1.73;;;1.60;;
3767;SDS011;1899;49.966;7.106;2023-03-23T07:48:49;1.63;;;1.53;;
3767;SDS011;1899;49.966;7.106;2023-03-23T07:51:14;2.80;;;1.60;;
3767;SDS011;1899;49.966;7.106;2023-03-23T07:53:41;1.70;;;1.57;;
3767;SDS011;1899;49.966;7.106;2023-03-23T07:56:09;2.20;;;1.27;;
3767;SDS011;1899;49.966;7.106;2023-03-23T07:58:34;1.90;;;1.10;;
3767;SDS011;1899;49.966;7.106;2023-03-23T08:01:00;1.67;;;1.23;;
3767;SDS011;1899;49.966;7.106;2023-03-23T08:03:25;1.20;;;1.10;;
3767;SDS011;1899;49.966;7.106;2023-03-23T08:05:51;2.60;;;1.70;;
3767;SDS011;1899;49.966;7.106;2023-03-23T08:08:16;1.43;;;1.33;;
3767;SDS011;1899;49.966;7.106;2023-03-23T08:10:41;3.53;;;1.27;;
3767;SDS011;1899;49.966;7.106;2023-03-23T08:13:07;1.33;;;1.10;;
3767;SDS011;1899;49.966;7.106;2023-03-23T08:15:33;2.70;;;1.50;;
3767;SDS011;1899;49.966;7.106;2023-03-23T08:18:02;2.33;;;1.10;;
3767;SDS011;1899;49.966;7.106;2023-03-23T08:20:27;1.10;;;1.00;;
3767;SDS011;1899;49.966;7.106;2023-03-23T08:22:54;1.83;;;1.30;;
3767;SDS011;1899;49.966;7.106;2023-03-23T08:25:20;2.20;;;1.20;;
3767;SDS011;1899;49.966;7.106;2023-03-23T08:27:46;2.77;;;1.10;;
3767;SDS011;1899;49.966;7.106;2023-03-23T08:30:12;1.00;;;0.83;;
3767;SDS011;1899;49.966;7.106;2023-03-23T08:32:38;1.10;;;0.90;;
3767;SDS011;1899;49.966;7.106;2023-03-23T08:35:04;1.93;;;1.00;;
3767;SDS011;1899;49.966;7.106;2023-03-23T08:37:30;1.80;;;1.10;;
3767;SDS011;1899;49.966;7.106;2023-03-23T08:39:55;1.30;;;1.00;;
3767;SDS011;1899;49.966;7.106;2023-03-23T08:42:22;1.67;;;1.00;;
3767;SDS011;1899;49.966;7.106;2023-03-23T08:44:48;2.03;;;0.80;;
3767;SDS011;1899;49.966;7.106;2023-03-23T08:47:13;1.20;;;1.10;;
3767;SDS011;1899;49.966;7.106;2023-03-23T08:49:39;1.33;;;1.00;;
3767;SDS011;1899;49.966;7.106;2023-03-23T08:52:04;2.00;;;1.30;;
3767;SDS011;1899;49.966;7.106;2023-03-23T08:54:30;1.53;;;0.93;;
3767;SDS011;1899;49.966;7.106;2023-03-23T08:56:59;2.20;;;1.50;;
3767;SDS011;1899;49.966;7.106;2023-03-23T08:59:25;2.40;;;0.93;;
3767;SDS011;1899;49.966;7.106;2023-03-23T09:01:51;1.80;;;0.70;;
3767;SDS011;1899;49.966;7.106;2023-03-23T09:04:17;2.10;;;1.10;;
3767;SDS011;1899;49.966;7.106;2023-03-23T09:06:42;1.53;;;1.10;;
3767;SDS011;1899;49.966;7.106;2023-03-23T09:09:08;1.33;;;0.80;;
3767;SDS011;1899;49.966;7.106;2023-03-23T09:11:34;1.13;;;0.90;;
3767;SDS011;1899;49.966;7.106;2023-03-23T09:14:00;0.93;;;0.80;;
3767;SDS011;1899;49.966;7.106;2023-03-23T09:16:26;1.53;;;1.10;;
3767;SDS011;1899;49.966;7.106;2023-03-23T09:18:51;1.13;;;0.90;;
3767;SDS011;1899;49.966;7.106;2023-03-23T09:21:16;1.20;;;0.90;;
3767;SDS011;1899;49.966;7.106;2023-03-23T09:23:42;2.23;;;1.10;;
3767;SDS011;1899;49.966;7.106;2023-03-23T09:26:09;1.20;;;0.97;;
3767;SDS011;1899;49.966;7.106;2023-03-23T09:28:34;1.30;;;0.93;;
3767;SDS011;1899;49.966;7.106;2023-03-23T09:31:00;1.50;;;1.10;;
3767;SDS011;1899;49.966;7.106;2023-03-23T09:33:25;2.20;;;1.00;;
3767;SDS011;1899;49.966;7.106;2023-03-23T09:35:51;2.10;;;1.40;;
3767;SDS011;1899;49.966;7.106;2023-03-23T09:38:16;1.97;;;1.00;;
3767;SDS011;1899;49.966;7.106;2023-03-23T09:43:26;1.70;;;0.93;;
3767;SDS011;1899;49.966;7.106;2023-03-23T09:48:36;1.13;;;1.03;;
3767;SDS011;1899;49.966;7.106;2023-03-23T09:53:40;2.23;;;1.20;;
3767;SDS011;1899;49.966;7.106;2023-03-23T09:56:12;1.57;;;1.00;;
3767;SDS011;1899;49.966;7.106;2023-03-23T09:58:42;1.30;;;0.90;;
3767;SDS011;1899;49.966;7.106;2023-03-23T10:01:13;2.20;;;1.00;;
3767;SDS011;1899;49.966;7.106;2023-03-23T10:03:40;1.77;;;1.10;;
3767;SDS011;1899;49.966;7.106;2023-03-23T10:06:11;2.20;;;0.97;;
3767;SDS011;1899;49.966;7.106;2023-03-23T10:08:38;2.50;;;1.00;;
3767;SDS011;1899;49.966;7.106;2023-03-23T10:16:42;1.33;;;0.80;;
3767;SDS011;1899;49.966;7.106;2023-03-23T10:19:21;1.20;;;0.97;;
3767;SDS011;1899;49.966;7.106;2023-03-23T10:21:52;1.23;;;1.10;;
3767;SDS011;1899;49.966;7.106;2023-03-23T10:24:19;2.07;;;0.83;;
3767;SDS011;1899;49.966;7.106;2023-03-23T10:31:43;2.03;;;1.00;;
3767;SDS011;1899;49.966;7.106;2023-03-23T10:34:12;3.63;;;1.20;;
3767;SDS011;1899;49.966;7.106;2023-03-23T10:36:48;1.40;;;1.30;;
3767;SDS011;1899;49.966;7.106;2023-03-23T10:39:19;1.80;;;1.10;;
3767;SDS011;1899;49.966;7.106;2023-03-23T10:41:46;2.50;;;1.20;;
3767;SDS011;1899;49.966;7.106;2023-03-23T10:44:14;1.10;;;1.00;;
3767;SDS011;1899;49.966;7.106;2023-03-23T10:46:49;1.40;;;0.87;;
3767;SDS011;1899;49.966;7.106;2023-03-23T10:50:00;1.30;;;0.83;;
3767;SDS011;1899;49.966;7.106;2023-03-23T10:55:13;1.10;;;0.87;;
3767;SDS011;1899;49.966;7.106;2023-03-23T10:57:37;1.10;;;0.80;;
3767;SDS011;1899;49.966;7.106;2023-03-23T11:02:40;0.80;;;0.80;;
3767;SDS011;1899;49.966;7.106;2023-03-23T11:05:13;2.00;;;1.10;;
3767;SDS011;1899;49.966;7.106;2023-03-23T11:07:40;1.10;;;1.00;;
3767;SDS011;1899;49.966;7.106;2023-03-23T11:10:11;1.00;;;0.90;;
3767;SDS011;1899;49.966;7.106;2023-03-23T11:12:43;0.80;;;0.67;;
3767;SDS011;1899;49.966;7.106;2023-03-23T11:15:42;1.77;;;0.80;;
3767;SDS011;1899;49.966;7.106;2023-03-23T11:18:02;1.03;;;0.90;;
3767;SDS011;1899;49.966;7.106;2023-03-23T11:20:29;1.07;;;0.97;;
3767;SDS011;1899;49.966;7.106;2023-03-23T11:22:55;1.93;;;1.07;;
3767;SDS011;1899;49.966;7.106;2023-03-23T11:25:21;1.20;;;0.80;;
3767;SDS011;1899;49.966;7.106;2023-03-23T11:27:47;0.93;;;0.80;;
3767;SDS011;1899;49.966;7.106;2023-03-23T11:32:42;1.20;;;0.83;;
3767;SDS011;1899;49.966;7.106;2023-03-23T11:35:23;0.93;;;0.70;;
3767;SDS011;1899;49.966;7.106;2023-03-23T11:40:20;1.57;;;1.17;;
3767;SDS011;1899;49.966;7.106;2023-03-23T11:47:48;3.47;;;1.00;;
3767;SDS011;1899;49.966;7.106;2023-03-23T11:52:47;1.50;;;0.83;;
3767;SDS011;1899;49.966;7.106;2023-03-23T11:58:00;1.97;;;0.80;;
3767;SDS011;1899;49.966;7.106;2023-03-23T12:00:25;2.40;;;1.27;;
3767;SDS011;1899;49.966;7.106;2023-03-23T12:10:47;1.50;;;1.40;;
3767;SDS011;1899;49.966;7.106;2023-03-23T12:18:58;2.17;;;1.00;;
3767;SDS011;1899;49.966;7.106;2023-03-23T12:21:37;1.77;;;1.40;;
3767;SDS011;1899;49.966;7.106;2023-03-23T12:26:45;1.67;;;0.80;;
3767;SDS011;1899;49.966;7.106;2023-03-23T12:31:44;3.23;;;1.10;;
3767;SDS011;1899;49.966;7.106;2023-03-23T12:37:11;1.20;;;0.80;;
3767;SDS011;1899;49.966;7.106;2023-03-23T12:48:09;1.50;;;1.03;;
3767;SDS011;1899;49.966;7.106;2023-03-23T12:50:37;1.57;;;1.07;;
3767;SDS011;1899;49.966;7.106;2023-03-23T12:53:21;1.83;;;1.50;;
3767;SDS011;1899;49.966;7.106;2023-03-23T12:55:50;1.17;;;1.00;;
3767;SDS011;1899;49.966;7.106;2023-03-23T12:58:18;1.97;;;1.47;;
3767;SDS011;1899;49.966;7.106;2023-03-23T13:06:02;1.10;;;0.90;;
3767;SDS011;1899;49.966;7.106;2023-03-23T13:08:34;1.40;;;0.90;;
3767;SDS011;1899;49.966;7.106;2023-03-23T13:11:02;1.23;;;1.00;;
3767;SDS011;1899;49.966;7.106;2023-03-23T13:18:44;2.90;;;1.30;;
3767;SDS011;1899;49.966;7.106;2023-03-23T13:21:16;2.43;;;1.10;;
3767;SDS011;1899;49.966;7.106;2023-03-23T13:23:45;2.93;;;1.17;;
3767;SDS011;1899;49.966;7.106;2023-03-23T13:26:12;2.20;;;1.47;;
3767;SDS011;1899;49.966;7.106;2023-03-23T13:28:47;1.10;;;0.90;;
3767;SDS011;1899;49.966;7.106;2023-03-23T13:31:14;1.50;;;1.40;;
3767;SDS011;1899;49.966;7.106;2023-03-23T13:33:45;1.83;;;1.20;;
3767;SDS011;1899;49.966;7.106;2023-03-23T13:36:13;2.83;;;1.57;;
3767;SDS011;1899;49.966;7.106;2023-03-23T13:38:44;2.23;;;1.20;;
3767;SDS011;1899;49.966;7.106;2023-03-23T13:41:12;1.90;;;1.40;;
3767;SDS011;1899;49.966;7.106;2023-03-23T13:43:39;2.23;;;1.40;;
3767;SDS011;1899;49.966;7.106;2023-03-23T13:46:27;4.20;;;1.40;;
3767;SDS011;1899;49.966;7.106;2023-03-23T13:49:02;2.13;;;1.20;;
3767;SDS011;1899;49.966;7.106;2023-03-23T13:54:12;2.53;;;1.50;;
3767;SDS011;1899;49.966;7.106;2023-03-23T14:04:57;4.33;;;2.30;;
3767;SDS011;1899;49.966;7.106;2023-03-23T14:07:22;2.20;;;1.67;;
3767;SDS011;1899;49.966;7.106;2023-03-23T14:09:49;2.13;;;1.37;;
3767;SDS011;1899;49.966;7.106;2023-03-23T14:12:19;3.37;;;1.80;;
3767;SDS011;1899;49.966;7.106;2023-03-23T14:14:50;2.27;;;1.20;;
3767;SDS011;1899;49.966;7.106;2023-03-23T14:17:17;2.90;;;1.50;;
3767;SDS011;1899;49.966;7.106;2023-03-23T14:19:46;2.23;;;1.33;;
3767;SDS011;1899;49.966;7.106;2023-03-23T14:22:19;4.80;;;1.43;;
3767;SDS011;1899;49.966;7.106;2023-03-23T14:24:44;4.30;;;1.80;;
3767;SDS011;1899;49.966;7.106;2023-03-23T14:27:12;1.43;;;1.33;;
3767;SDS011;1899;49.966;7.106;2023-03-23T14:29:38;3.97;;;1.33;;
3767;SDS011;1899;49.966;7.106;2023-03-23T14:32:05;3.07;;;1.70;;
3767;SDS011;1899;49.966;7.106;2023-03-23T14:34:31;2.50;;;1.40;;
3767;SDS011;1899;49.966;7.106;2023-03-23T14:36:57;2.40;;;1.70;;
3767;SDS011;1899;49.966;7.106;2023-03-23T14:41:49;3.87;;;1.70;;
3767;SDS011;1899;49.966;7.106;2023-03-23T14:44:20;5.95;;;2.10;;
3767;SDS011;1899;49.966;7.106;2023-03-23T14:46:46;3.97;;;1.90;;
3767;SDS011;1899;49.966;7.106;2023-03-23T14:49:12;3.17;;;1.70;;
3767;SDS011;1899;49.966;7.106;2023-03-23T14:51:46;4.47;;;1.90;;
3767;SDS011;1899;49.966;7.106;2023-03-23T14:54:11;3.00;;;1.80;;
3767;SDS011;1899;49.966;7.106;2023-03-23T14:56:36;3.13;;;1.60;;
3767;SDS011;1899;49.966;7.106;2023-03-23T14:59:03;3.20;;;1.80;;
3767;SDS011;1899;49.966;7.106;2023-03-23T15:01:30;3.80;;;1.80;;
3767;SDS011;1899;49.966;7.106;2023-03-23T15:06:26;3.45;;;1.75;;
3767;SDS011;1899;49.966;7.106;2023-03-23T15:08:52;3.72;;;1.98;;
3767;SDS011;1899;49.966;7.106;2023-03-23T15:13:44;3.00;;;1.50;;
3767;SDS011;1899;49.966;7.106;2023-03-23T15:16:15;3.60;;;1.50;;
3767;SDS011;1899;49.966;7.106;2023-03-23T15:18:47;4.22;;;1.70;;
3767;SDS011;1899;49.966;7.106;2023-03-23T15:21:22;3.33;;;1.70;;
3767;SDS011;1899;49.966;7.106;2023-03-23T15:23:48;2.97;;;1.65;;
3767;SDS011;1899;49.966;7.106;2023-03-23T15:26:24;2.40;;;1.53;;
3767;SDS011;1899;49.966;7.106;2023-03-23T15:28:49;2.40;;;1.60;;
3767;SDS011;1899;49.966;7.106;2023-03-23T15:31:15;2.70;;;1.70;;
3767;SDS011;1899;49.966;7.106;2023-03-23T15:33:40;3.00;;;1.53;;
3767;SDS011;1899;49.966;7.106;2023-03-23T15:36:14;3.78;;;1.52;;
3767;SDS011;1899;49.966;7.106;2023-03-23T15:38:42;2.20;;;1.60;;
3767;SDS011;1899;49.966;7.106;2023-03-23T15:41:19;1.92;;;1.50;;
3767;SDS011;1899;49.966;7.106;2023-03-23T15:43:50;2.90;;;1.50;;
3767;SDS011;1899;49.966;7.106;2023-03-23T15:51:12;6.00;;;1.80;;
3767;SDS011;1899;49.966;7.106;2023-03-23T15:53:38;4.50;;;1.77;;
3767;SDS011;1899;49.966;7.106;2023-03-23T15:56:05;3.00;;;1.70;;
3767;SDS011;1899;49.966;7.106;2023-03-23T15:58:31;2.45;;;1.50;;
3767;SDS011;1899;49.966;7.106;2023-03-23T16:00:57;3.33;;;1.50;;
3767;SDS011;1899;49.966;7.106;2023-03-23T16:03:24;3.25;;;2.00;;
3767;SDS011;1899;49.966;7.106;2023-03-23T16:05:52;3.50;;;1.70;;
3767;SDS011;1899;49.966;7.106;2023-03-23T16:08:17;2.40;;;1.40;;
3767;SDS011;1899;49.966;7.106;2023-03-23T16:10:42;3.53;;;1.73;;
3767;SDS011;1899;49.966;7.106;2023-03-23T16:13:07;3.10;;;1.57;;
3767;SDS011;1899;49.966;7.106;2023-03-23T16:15:33;2.60;;;1.40;;
3767;SDS011;1899;49.966;7.106;2023-03-23T16:17:58;3.30;;;1.50;;
3767;SDS011;1899;49.966;7.106;2023-03-23T16:20:23;2.47;;;1.40;;
3767;SDS011;1899;49.966;7.106;2023-03-23T16:22:49;2.67;;;1.47;;
3767;SDS011;1899;49.966;7.106;2023-03-23T16:25:15;2.90;;;1.63;;
3767;SDS011;1899;49.966;7.106;2023-03-23T16:27:41;3.17;;;1.70;;
3767;SDS011;1899;49.966;7.106;2023-03-23T16:30:12;2.80;;;1.70;;
3767;SDS011;1899;49.966;7.106;2023-03-23T16:32:38;2.92;;;1.60;;
3767;SDS011;1899;49.966;7.106;2023-03-23T16:35:03;3.90;;;1.60;;
3767;SDS011;1899;49.966;7.106;2023-03-23T16:37:28;2.90;;;1.40;;
3767;SDS011;1899;49.966;7.106;2023-03-23T16:39:57;4.32;;;1.80;;
3767;SDS011;1899;49.966;7.106;2023-03-23T16:42:22;3.27;;;1.73;;
3767;SDS011;1899;49.966;7.106;2023-03-23T16:44:47;2.80;;;1.53;;
3767;SDS011;1899;49.966;7.106;2023-03-23T16:47:15;3.40;;;1.60;;
3767;SDS011;1899;49.966;7.106;2023-03-23T16:49:42;6.75;;;1.90;;
3767;SDS011;1899;49.966;7.106;2023-03-23T16:52:08;3.80;;;1.90;;
3767;SDS011;1899;49.966;7.106;2023-03-23T16:54:33;3.60;;;1.60;;
3767;SDS011;1899;49.966;7.106;2023-03-23T16:56:58;3.47;;;2.00;;
3767;SDS011;1899;49.966;7.106;2023-03-23T16:59:26;2.83;;;1.70;;
3767;SDS011;1899;49.966;7.106;2023-03-23T17:01:51;3.78;;;1.80;;
3767;SDS011;1899;49.966;7.106;2023-03-23T17:04:16;3.27;;;1.60;;
3767;SDS011;1899;49.966;7.106;2023-03-23T17:06:41;4.40;;;2.00;;
3767;SDS011;1899;49.966;7.106;2023-03-23T17:09:08;2.80;;;1.70;;
3767;SDS011;1899;49.966;7.106;2023-03-23T17:11:33;2.50;;;1.50;;
3767;SDS011;1899;49.966;7.106;2023-03-23T17:13:59;4.20;;;2.00;;
3767;SDS011;1899;49.966;7.106;2023-03-23T17:16:24;4.30;;;1.90;;
3767;SDS011;1899;49.966;7.106;2023-03-23T17:18:49;3.50;;;1.70;;
3767;SDS011;1899;49.966;7.106;2023-03-23T17:21:15;3.73;;;1.87;;
3767;SDS011;1899;49.966;7.106;2023-03-23T17:23:40;3.65;;;1.70;;
3767;SDS011;1899;49.966;7.106;2023-03-23T17:26:05;3.33;;;1.60;;
3767;SDS011;1899;49.966;7.106;2023-03-23T17:28:31;3.30;;;1.70;;
3767;SDS011;1899;49.966;7.106;2023-03-23T17:30:56;3.30;;;1.60;;
3767;SDS011;1899;49.966;7.106;2023-03-23T17:33:21;2.83;;;1.77;;
3767;SDS011;1899;49.966;7.106;2023-03-23T17:35:47;4.50;;;2.10;;
3767;SDS011;1899;49.966;7.106;2023-03-23T17:38:15;3.42;;;1.88;;
3767;SDS011;1899;49.966;7.106;2023-03-23T17:40:41;4.97;;;1.80;;
3767;SDS011;1899;49.966;7.106;2023-03-23T17:43:07;3.30;;;1.80;;
3767;SDS011;1899;49.966;7.106;2023-03-23T17:45:32;3.80;;;2.10;;
3767;SDS011;1899;49.966;7.106;2023-03-23T17:47:57;2.63;;;1.73;;
3767;SDS011;1899;49.966;7.106;2023-03-23T17:50:22;4.37;;;1.80;;
3767;SDS011;1899;49.966;7.106;2023-03-23T17:52:48;2.83;;;1.80;;
3767;SDS011;1899;49.966;7.106;2023-03-23T17:55:14;2.05;;;1.50;;
3767;SDS011;1899;49.966;7.106;2023-03-23T17:57:39;2.60;;;1.50;;
3767;SDS011;1899;49.966;7.106;2023-03-23T18:00:05;3.67;;;1.60;;
3767;SDS011;1899;49.966;7.106;2023-03-23T18:02:37;3.47;;;1.90;;
3767;SDS011;1899;49.966;7.106;2023-03-23T18:05:02;2.28;;;1.40;;
3767;SDS011;1899;49.966;7.106;2023-03-23T18:07:27;3.37;;;1.80;;
3767;SDS011;1899;49.966;7.106;2023-03-23T18:09:56;3.40;;;2.00;;
3767;SDS011;1899;49.966;7.106;2023-03-23T18:12:21;3.35;;;2.10;;
3767;SDS011;1899;49.966;7.106;2023-03-23T18:14:47;4.50;;;1.70;;
3767;SDS011;1899;49.966;7.106;2023-03-23T18:17:12;4.50;;;1.63;;
3767;SDS011;1899;49.966;7.106;2023-03-23T18:19:37;2.70;;;1.90;;
3767;SDS011;1899;49.966;7.106;2023-03-23T18:22:03;4.60;;;2.40;;
3767;SDS011;1899;49.966;7.106;2023-03-23T18:24:28;4.20;;;2.40;;
3767;SDS011;1899;49.966;7.106;2023-03-23T18:26:53;3.27;;;2.10;;
3767;SDS011;1899;49.966;7.106;2023-03-23T18:29:20;4.60;;;2.40;;
3767;SDS011;1899;49.966;7.106;2023-03-23T18:31:46;3.07;;;2.17;;
3767;SDS011;1899;49.966;7.106;2023-03-23T18:34:11;2.93;;;2.33;;
3767;SDS011;1899;49.966;7.106;2023-03-23T18:36:36;3.57;;;2.40;;
3767;SDS011;1899;49.966;7.106;2023-03-23T18:39:02;3.63;;;2.27;;
3767;SDS011;1899;49.966;7.106;2023-03-23T18:41:28;4.78;;;2.90;;
3767;SDS011;1899;49.966;7.106;2023-03-23T18:43:53;5.47;;;2.63;;
3767;SDS011;1899;49.966;7.106;2023-03-23T18:46:18;5.50;;;2.50;;
3767;SDS011;1899;49.966;7.106;2023-03-23T18:48:43;3.57;;;2.00;;
3767;SDS011;1899;49.966;7.106;2023-03-23T18:51:09;3.57;;;2.23;;
3767;SDS011;1899;49.966;7.106;2023-03-23T18:53:35;3.30;;;2.50;;
3767;SDS011;1899;49.966;7.106;2023-03-23T18:56:04;5.07;;;2.13;;
3767;SDS011;1899;49.966;7.106;2023-03-23T18:58:30;3.78;;;2.30;;
3767;SDS011;1899;49.966;7.106;2023-03-23T19:00:56;4.20;;;2.40;;
3767;SDS011;1899;49.966;7.106;2023-03-23T19:03:21;4.35;;;2.40;;
3767;SDS011;1899;49.966;7.106;2023-03-23T19:05:47;3.40;;;1.60;;
3767;SDS011;1899;49.966;7.106;2023-03-23T19:08:14;5.43;;;2.50;;
3767;SDS011;1899;49.966;7.106;2023-03-23T19:10:40;5.35;;;2.25;;
3767;SDS011;1899;49.966;7.106;2023-03-23T19:13:06;4.63;;;2.10;;
3767;SDS011;1899;49.966;7.106;2023-03-23T19:15:31;4.32;;;2.20;;
3767;SDS011;1899;49.966;7.106;2023-03-23T19:17:56;2.07;;;1.77;;
3767;SDS011;1899;49.966;7.106;2023-03-23T19:20:22;3.67;;;2.00;;
3767;SDS011;1899;49.966;7.106;2023-03-23T19:22:48;3.03;;;2.07;;
3767;SDS011;1899;49.966;7.106;2023-03-23T19:25:13;4.47;;;2.20;;
3767;SDS011;1899;49.966;7.106;2023-03-23T19:27:39;3.08;;;2.15;;
3767;SDS011;1899;49.966;7.106;2023-03-23T19:30:06;3.63;;;1.98;;
3767;SDS011;1899;49.966;7.106;2023-03-23T19:32:32;4.18;;;2.30;;
3767;SDS011;1899;49.966;7.106;2023-03-23T19:34:57;3.22;;;2.20;;
3767;SDS011;1899;49.966;7.106;2023-03-23T19:37:22;2.90;;;2.00;;
3767;SDS011;1899;49.966;7.106;2023-03-23T19:39:48;3.63;;;2.23;;
3767;SDS011;1899;49.966;7.106;2023-03-23T19:42:13;4.10;;;2.40;;
3767;SDS011;1899;49.966;7.106;2023-03-23T19:44:40;3.92;;;2.60;;
3767;SDS011;1899;49.966;7.106;2023-03-23T19:47:06;4.77;;;2.60;;
3767;SDS011;1899;49.966;7.106;2023-03-23T19:49:31;5.13;;;3.03;;
3767;SDS011;1899;49.966;7.106;2023-03-23T19:51:56;5.20;;;2.90;;
3767;SDS011;1899;49.966;7.106;2023-03-23T19:54:21;3.23;;;2.33;;
3767;SDS011;1899;49.966;7.106;2023-03-23T19:56:47;4.67;;;2.30;;
3767;SDS011;1899;49.966;7.106;2023-03-23T19:59:12;5.00;;;2.27;;
3767;SDS011;1899;49.966;7.106;2023-03-23T20:01:39;4.90;;;2.30;;
3767;SDS011;1899;49.966;7.106;2023-03-23T20:04:05;3.60;;;2.30;;
3767;SDS011;1899;49.966;7.106;2023-03-23T20:06:31;3.80;;;2.20;;
3767;SDS011;1899;49.966;7.106;2023-03-23T20:08:56;4.53;;;2.00;;
3767;SDS011;1899;49.966;7.106;2023-03-23T20:11:21;4.30;;;2.13;;
3767;SDS011;1899;49.966;7.106;2023-03-23T20:13:47;3.63;;;2.30;;
3767;SDS011;1899;49.966;7.106;2023-03-23T20:16:13;2.80;;;1.90;;
3767;SDS011;1899;49.966;7.106;2023-03-23T20:18:38;2.20;;;2.00;;
3767;SDS011;1899;49.966;7.106;2023-03-23T20:21:08;4.40;;;2.13;;
3767;SDS011;1899;49.966;7.106;2023-03-23T20:23:34;3.78;;;2.30;;
3767;SDS011;1899;49.966;7.106;2023-03-23T20:26:00;2.70;;;2.00;;
3767;SDS011;1899;49.966;7.106;2023-03-23T20:28:26;2.25;;;2.00;;
3767;SDS011;1899;49.966;7.106;2023-03-23T20:31:02;4.25;;;2.25;;
3767;SDS011;1899;49.966;7.106;2023-03-23T20:33:28;6.30;;;2.10;;
3767;SDS011;1899;49.966;7.106;2023-03-23T20:35:55;3.95;;;2.20;;
3767;SDS011;1899;49.966;7.106;2023-03-23T20:38:20;2.88;;;1.88;;
3767;SDS011;1899;49.966;7.106;2023-03-23T20:40:46;3.43;;;2.20;;
3767;SDS011;1899;49.966;7.106;2023-03-23T20:43:12;4.13;;;2.30;;
3767;SDS011;1899;49.966;7.106;2023-03-23T20:45:37;4.70;;;2.30;;
3767;SDS011;1899;49.966;7.106;2023-03-23T20:48:03;3.07;;;2.40;;
3767;SDS011;1899;49.966;7.106;2023-03-23T20:50:29;3.42;;;2.70;;
3767;SDS011;1899;49.966;7.106;2023-03-23T20:52:54;3.87;;;2.83;;
3767;SDS011;1899;49.966;7.106;2023-03-23T20:55:21;3.03;;;2.60;;
3767;SDS011;1899;49.966;7.106;2023-03-23T20:57:46;3.13;;;2.33;;
